sensor_id;sensor_type;location;lat;lon;timestamp;P1;durP1;ratioP1;P2;durP2;ratioP2
12906;SDS011;6521;50.498;8.474;2023-06-14T00:00:23;7.35;;;4.90;;
12906;SDS011;6521;50.498;8.474;2023-06-14T00:02:54;5.53;;;4.40;;
12906;SDS011;6521;50.498;8.474;2023-06-14T00:05:26;6.18;;;5.30;;
12906;SDS011;6521;50.498;8.474;2023-06-14T00:07:57;5.80;;;4.50;;
12906;SDS011;6521;50.498;8.474;2023-06-14T00:10:30;7.18;;;5.07;;
12906;SDS011;6521;50.498;8.474;2023-06-14T00:13:02;5.75;;;5.13;;
12906;SDS011;6521;50.498;8.474;2023-06-14T00:15:34;6.95;;;4.75;;
12906;SDS011;6521;50.498;8.474;2023-06-14T00:18:06;6.85;;;4.47;;
12906;SDS011;6521;50.498;8.474;2023-06-14T00:20:36;8.25;;;4.65;;
12906;SDS011;6521;50.498;8.474;2023-06-14T00:23:08;5.68;;;4.35;;
12906;SDS011;6521;50.498;8.474;2023-06-14T00:25:39;5.00;;;4.50;;
12906;SDS011;6521;50.498;8.474;2023-06-14T00:28:09;8.60;;;4.70;;
12906;SDS011;6521;50.498;8.474;2023-06-14T00:30:41;5.38;;;4.88;;
12906;SDS011;6521;50.498;8.474;2023-06-14T00:33:14;5.45;;;4.60;;
12906;SDS011;6521;50.498;8.474;2023-06-14T00:35:47;5.10;;;4.60;;
12906;SDS011;6521;50.498;8.474;2023-06-14T00:38:18;5.47;;;4.88;;
12906;SDS011;6521;50.498;8.474;2023-06-14T00:40:49;4.85;;;4.45;;
12906;SDS011;6521;50.498;8.474;2023-06-14T00:43:20;7.32;;;4.70;;
12906;SDS011;6521;50.498;8.474;2023-06-14T00:45:51;6.72;;;4.20;;
12906;SDS011;6521;50.498;8.474;2023-06-14T00:48:22;6.75;;;4.35;;
12906;SDS011;6521;50.498;8.474;2023-06-14T00:50:55;4.78;;;4.38;;
12906;SDS011;6521;50.498;8.474;2023-06-14T00:53:26;5.20;;;4.70;;
12906;SDS011;6521;50.498;8.474;2023-06-14T00:55:57;7.50;;;4.25;;
12906;SDS011;6521;50.498;8.474;2023-06-14T00:58:28;7.97;;;4.93;;
12906;SDS011;6521;50.498;8.474;2023-06-14T01:00:59;5.28;;;4.75;;
12906;SDS011;6521;50.498;8.474;2023-06-14T01:03:30;4.90;;;4.40;;
12906;SDS011;6521;50.498;8.474;2023-06-14T01:06:05;5.28;;;4.00;;
12906;SDS011;6521;50.498;8.474;2023-06-14T01:08:51;6.20;;;4.35;;
12906;SDS011;6521;50.498;8.474;2023-06-14T01:11:33;8.25;;;4.47;;
12906;SDS011;6521;50.498;8.474;2023-06-14T01:14:16;6.38;;;3.90;;
12906;SDS011;6521;50.498;8.474;2023-06-14T01:16:50;5.78;;;4.05;;
12906;SDS011;6521;50.498;8.474;2023-06-14T01:19:25;5.40;;;3.67;;
12906;SDS011;6521;50.498;8.474;2023-06-14T01:21:59;4.57;;;4.18;;
12906;SDS011;6521;50.498;8.474;2023-06-14T01:24:31;5.75;;;4.05;;
12906;SDS011;6521;50.498;8.474;2023-06-14T01:27:03;8.73;;;4.20;;
12906;SDS011;6521;50.498;8.474;2023-06-14T01:29:36;4.25;;;3.85;;
12906;SDS011;6521;50.498;8.474;2023-06-14T01:32:07;5.80;;;4.15;;
12906;SDS011;6521;50.498;8.474;2023-06-14T01:34:38;7.22;;;4.07;;
12906;SDS011;6521;50.498;8.474;2023-06-14T01:37:09;7.25;;;4.63;;
12906;SDS011;6521;50.498;8.474;2023-06-14T01:39:41;5.40;;;4.18;;
12906;SDS011;6521;50.498;8.474;2023-06-14T01:42:14;5.57;;;3.83;;
12906;SDS011;6521;50.498;8.474;2023-06-14T01:44:46;4.78;;;4.25;;
12906;SDS011;6521;50.498;8.474;2023-06-14T01:47:18;4.45;;;4.00;;
12906;SDS011;6521;50.498;8.474;2023-06-14T01:49:48;6.60;;;4.07;;
12906;SDS011;6521;50.498;8.474;2023-06-14T01:52:19;5.15;;;3.90;;
12906;SDS011;6521;50.498;8.474;2023-06-14T01:54:52;7.10;;;4.18;;
12906;SDS011;6521;50.498;8.474;2023-06-14T01:57:23;10.82;;;4.32;;
12906;SDS011;6521;50.498;8.474;2023-06-14T01:59:56;7.65;;;4.15;;
12906;SDS011;6521;50.498;8.474;2023-06-14T02:02:27;5.35;;;3.97;;
12906;SDS011;6521;50.498;8.474;2023-06-14T02:04:58;8.70;;;4.20;;
12906;SDS011;6521;50.498;8.474;2023-06-14T02:07:28;5.80;;;3.67;;
12906;SDS011;6521;50.498;8.474;2023-06-14T02:09:59;5.93;;;4.35;;
12906;SDS011;6521;50.498;8.474;2023-06-14T02:12:30;7.70;;;4.25;;
12906;SDS011;6521;50.498;8.474;2023-06-14T02:15:02;6.65;;;3.90;;
12906;SDS011;6521;50.498;8.474;2023-06-14T02:17:34;7.40;;;3.95;;
12906;SDS011;6521;50.498;8.474;2023-06-14T02:20:10;7.32;;;4.18;;
12906;SDS011;6521;50.498;8.474;2023-06-14T02:22:42;6.07;;;4.35;;
12906;SDS011;6521;50.498;8.474;2023-06-14T02:25:12;7.32;;;4.30;;
12906;SDS011;6521;50.498;8.474;2023-06-14T02:27:45;4.63;;;4.20;;
12906;SDS011;6521;50.498;8.474;2023-06-14T02:30:15;8.23;;;4.30;;
12906;SDS011;6521;50.498;8.474;2023-06-14T02:32:47;4.93;;;4.40;;
12906;SDS011;6521;50.498;8.474;2023-06-14T02:35:18;7.20;;;3.78;;
12906;SDS011;6521;50.498;8.474;2023-06-14T02:37:50;4.82;;;3.55;;
12906;SDS011;6521;50.498;8.474;2023-06-14T02:40:22;7.47;;;4.22;;
12906;SDS011;6521;50.498;8.474;2023-06-14T02:42:54;6.47;;;3.92;;
12906;SDS011;6521;50.498;8.474;2023-06-14T02:45:24;6.70;;;4.22;;
12906;SDS011;6521;50.498;8.474;2023-06-14T02:47:56;4.70;;;3.80;;
12906;SDS011;6521;50.498;8.474;2023-06-14T02:50:27;5.78;;;3.95;;
12906;SDS011;6521;50.498;8.474;2023-06-14T02:52:58;5.78;;;4.22;;
12906;SDS011;6521;50.498;8.474;2023-06-14T02:55:29;6.00;;;4.28;;
12906;SDS011;6521;50.498;8.474;2023-06-14T02:58:00;6.75;;;4.03;;
12906;SDS011;6521;50.498;8.474;2023-06-14T03:00:32;10.55;;;3.90;;
12906;SDS011;6521;50.498;8.474;2023-06-14T03:03:03;4.68;;;3.72;;
12906;SDS011;6521;50.498;8.474;2023-06-14T03:05:35;5.25;;;4.10;;
12906;SDS011;6521;50.498;8.474;2023-06-14T03:08:06;11.20;;;4.50;;
12906;SDS011;6521;50.498;8.474;2023-06-14T03:10:37;7.40;;;4.65;;
12906;SDS011;6521;50.498;8.474;2023-06-14T03:13:10;4.85;;;4.00;;
12906;SDS011;6521;50.498;8.474;2023-06-14T03:15:42;5.25;;;4.20;;
12906;SDS011;6521;50.498;8.474;2023-06-14T03:18:16;5.95;;;4.43;;
12906;SDS011;6521;50.498;8.474;2023-06-14T03:20:47;7.55;;;4.13;;
12906;SDS011;6521;50.498;8.474;2023-06-14T03:23:18;4.43;;;4.03;;
12906;SDS011;6521;50.498;8.474;2023-06-14T03:25:49;7.28;;;4.25;;
12906;SDS011;6521;50.498;8.474;2023-06-14T03:28:20;8.70;;;4.40;;
12906;SDS011;6521;50.498;8.474;2023-06-14T03:30:51;9.18;;;4.38;;
12906;SDS011;6521;50.498;8.474;2023-06-14T03:33:22;7.30;;;4.38;;
12906;SDS011;6521;50.498;8.474;2023-06-14T03:35:53;7.68;;;4.28;;
12906;SDS011;6521;50.498;8.474;2023-06-14T03:38:24;4.88;;;4.32;;
12906;SDS011;6521;50.498;8.474;2023-06-14T03:40:55;9.02;;;4.05;;
12906;SDS011;6521;50.498;8.474;2023-06-14T03:43:27;8.32;;;4.05;;
12906;SDS011;6521;50.498;8.474;2023-06-14T03:45:58;8.10;;;4.10;;
12906;SDS011;6521;50.498;8.474;2023-06-14T03:48:30;6.28;;;4.30;;
12906;SDS011;6521;50.498;8.474;2023-06-14T03:51:01;6.13;;;3.90;;
12906;SDS011;6521;50.498;8.474;2023-06-14T03:53:33;7.97;;;4.82;;
12906;SDS011;6521;50.498;8.474;2023-06-14T03:56:07;15.85;;;4.68;;
12906;SDS011;6521;50.498;8.474;2023-06-14T03:58:44;6.18;;;4.05;;
12906;SDS011;6521;50.498;8.474;2023-06-14T04:01:16;10.25;;;4.30;;
12906;SDS011;6521;50.498;8.474;2023-06-14T04:03:47;15.45;;;4.20;;
12906;SDS011;6521;50.498;8.474;2023-06-14T04:06:18;9.90;;;4.20;;
12906;SDS011;6521;50.498;8.474;2023-06-14T04:08:49;6.03;;;4.57;;
12906;SDS011;6521;50.498;8.474;2023-06-14T04:11:21;12.70;;;4.40;;
12906;SDS011;6521;50.498;8.474;2023-06-14T04:13:52;30.00;;;4.55;;
12906;SDS011;6521;50.498;8.474;2023-06-14T04:16:25;13.48;;;4.30;;
12906;SDS011;6521;50.498;8.474;2023-06-14T04:18:56;10.75;;;4.38;;
12906;SDS011;6521;50.498;8.474;2023-06-14T04:21:28;10.25;;;4.15;;
12906;SDS011;6521;50.498;8.474;2023-06-14T04:24:01;5.88;;;4.10;;
12906;SDS011;6521;50.498;8.474;2023-06-14T04:26:34;9.30;;;4.60;;
12906;SDS011;6521;50.498;8.474;2023-06-14T04:29:06;10.48;;;4.15;;
12906;SDS011;6521;50.498;8.474;2023-06-14T04:31:45;8.38;;;4.25;;
12906;SDS011;6521;50.498;8.474;2023-06-14T04:34:18;9.85;;;3.65;;
12906;SDS011;6521;50.498;8.474;2023-06-14T04:36:56;10.48;;;4.10;;
12906;SDS011;6521;50.498;8.474;2023-06-14T04:39:35;7.90;;;4.20;;
12906;SDS011;6521;50.498;8.474;2023-06-14T04:42:06;13.88;;;4.15;;
12906;SDS011;6521;50.498;8.474;2023-06-14T04:44:38;7.57;;;4.10;;
12906;SDS011;6521;50.498;8.474;2023-06-14T04:47:10;9.93;;;4.70;;
12906;SDS011;6521;50.498;8.474;2023-06-14T04:49:43;9.38;;;4.47;;
12906;SDS011;6521;50.498;8.474;2023-06-14T04:52:14;11.85;;;4.43;;
12906;SDS011;6521;50.498;8.474;2023-06-14T04:54:48;27.55;;;5.50;;
12906;SDS011;6521;50.498;8.474;2023-06-14T04:57:22;71.93;;;7.50;;
12906;SDS011;6521;50.498;8.474;2023-06-14T04:59:57;31.50;;;6.25;;
12906;SDS011;6521;50.498;8.474;2023-06-14T05:02:29;27.20;;;5.78;;
12906;SDS011;6521;50.498;8.474;2023-06-14T05:05:01;15.32;;;4.53;;
12906;SDS011;6521;50.498;8.474;2023-06-14T05:07:32;12.07;;;4.32;;
12906;SDS011;6521;50.498;8.474;2023-06-14T05:10:04;14.77;;;4.40;;
12906;SDS011;6521;50.498;8.474;2023-06-14T05:12:36;33.45;;;4.72;;
12906;SDS011;6521;50.498;8.474;2023-06-14T05:15:08;8.60;;;4.00;;
12906;SDS011;6521;50.498;8.474;2023-06-14T05:17:41;16.05;;;4.10;;
12906;SDS011;6521;50.498;8.474;2023-06-14T05:20:12;5.50;;;3.80;;
12906;SDS011;6521;50.498;8.474;2023-06-14T05:22:43;7.93;;;3.65;;
12906;SDS011;6521;50.498;8.474;2023-06-14T05:25:14;11.88;;;4.13;;
12906;SDS011;6521;50.498;8.474;2023-06-14T05:27:45;4.10;;;3.45;;
12906;SDS011;6521;50.498;8.474;2023-06-14T05:30:15;10.57;;;4.20;;
12906;SDS011;6521;50.498;8.474;2023-06-14T05:32:46;12.57;;;4.22;;
12906;SDS011;6521;50.498;8.474;2023-06-14T05:35:17;6.15;;;3.85;;
12906;SDS011;6521;50.498;8.474;2023-06-14T05:37:48;5.75;;;4.35;;
12906;SDS011;6521;50.498;8.474;2023-06-14T05:40:19;14.65;;;4.43;;
12906;SDS011;6521;50.498;8.474;2023-06-14T05:42:50;7.50;;;4.43;;
12906;SDS011;6521;50.498;8.474;2023-06-14T05:45:21;4.85;;;3.53;;
12906;SDS011;6521;50.498;8.474;2023-06-14T05:47:52;9.30;;;3.85;;
12906;SDS011;6521;50.498;8.474;2023-06-14T05:50:25;7.22;;;4.13;;
12906;SDS011;6521;50.498;8.474;2023-06-14T05:52:55;11.25;;;3.38;;
12906;SDS011;6521;50.498;8.474;2023-06-14T05:55:26;9.77;;;4.32;;
12906;SDS011;6521;50.498;8.474;2023-06-14T05:57:57;16.98;;;4.50;;
12906;SDS011;6521;50.498;8.474;2023-06-14T06:00:28;7.93;;;3.95;;
12906;SDS011;6521;50.498;8.474;2023-06-14T06:02:59;15.07;;;4.40;;
12906;SDS011;6521;50.498;8.474;2023-06-14T06:05:31;8.48;;;3.70;;
12906;SDS011;6521;50.498;8.474;2023-06-14T06:08:02;8.82;;;3.80;;
12906;SDS011;6521;50.498;8.474;2023-06-14T06:10:33;15.27;;;4.40;;
12906;SDS011;6521;50.498;8.474;2023-06-14T06:13:03;4.60;;;3.92;;
12906;SDS011;6521;50.498;8.474;2023-06-14T06:15:35;7.95;;;3.90;;
12906;SDS011;6521;50.498;8.474;2023-06-14T06:18:06;4.95;;;4.07;;
12906;SDS011;6521;50.498;8.474;2023-06-14T06:20:37;5.07;;;3.50;;
12906;SDS011;6521;50.498;8.474;2023-06-14T06:23:08;6.35;;;3.90;;
12906;SDS011;6521;50.498;8.474;2023-06-14T06:25:40;5.40;;;3.78;;
12906;SDS011;6521;50.498;8.474;2023-06-14T06:28:11;10.02;;;4.10;;
12906;SDS011;6521;50.498;8.474;2023-06-14T06:30:41;7.35;;;3.70;;
12906;SDS011;6521;50.498;8.474;2023-06-14T06:33:12;8.95;;;3.45;;
12906;SDS011;6521;50.498;8.474;2023-06-14T06:35:44;12.65;;;4.15;;
12906;SDS011;6521;50.498;8.474;2023-06-14T06:38:15;12.63;;;4.38;;
12906;SDS011;6521;50.498;8.474;2023-06-14T06:40:49;19.80;;;4.28;;
12906;SDS011;6521;50.498;8.474;2023-06-14T06:43:20;12.52;;;3.67;;
12906;SDS011;6521;50.498;8.474;2023-06-14T06:45:52;16.05;;;4.10;;
12906;SDS011;6521;50.498;8.474;2023-06-14T06:48:23;11.05;;;3.45;;
12906;SDS011;6521;50.498;8.474;2023-06-14T06:50:54;7.45;;;3.25;;
12906;SDS011;6521;50.498;8.474;2023-06-14T06:53:25;6.07;;;3.65;;
12906;SDS011;6521;50.498;8.474;2023-06-14T06:55:56;7.40;;;3.38;;
12906;SDS011;6521;50.498;8.474;2023-06-14T06:58:27;14.82;;;3.60;;
12906;SDS011;6521;50.498;8.474;2023-06-14T07:00:58;7.30;;;3.22;;
12906;SDS011;6521;50.498;8.474;2023-06-14T07:03:29;4.95;;;3.28;;
12906;SDS011;6521;50.498;8.474;2023-06-14T07:06:00;6.88;;;3.53;;
12906;SDS011;6521;50.498;8.474;2023-06-14T07:08:31;5.38;;;3.67;;
12906;SDS011;6521;50.498;8.474;2023-06-14T07:11:02;8.32;;;3.50;;
12906;SDS011;6521;50.498;8.474;2023-06-14T07:13:34;7.15;;;3.53;;
12906;SDS011;6521;50.498;8.474;2023-06-14T07:16:05;5.70;;;3.17;;
12906;SDS011;6521;50.498;8.474;2023-06-14T07:18:36;15.55;;;3.30;;
12906;SDS011;6521;50.498;8.474;2023-06-14T07:21:08;6.85;;;2.83;;
12906;SDS011;6521;50.498;8.474;2023-06-14T07:23:39;3.72;;;3.33;;
12906;SDS011;6521;50.498;8.474;2023-06-14T07:26:09;8.85;;;3.00;;
12906;SDS011;6521;50.498;8.474;2023-06-14T07:28:40;3.33;;;2.70;;
12906;SDS011;6521;50.498;8.474;2023-06-14T07:31:15;4.38;;;3.03;;
12906;SDS011;6521;50.498;8.474;2023-06-14T07:33:47;7.25;;;2.55;;
12906;SDS011;6521;50.498;8.474;2023-06-14T07:36:17;3.55;;;2.47;;
12906;SDS011;6521;50.498;8.474;2023-06-14T07:38:48;3.10;;;2.58;;
12906;SDS011;6521;50.498;8.474;2023-06-14T07:41:19;5.15;;;2.78;;
12906;SDS011;6521;50.498;8.474;2023-06-14T07:43:50;7.90;;;2.70;;
12906;SDS011;6521;50.498;8.474;2023-06-14T07:46:21;6.60;;;2.85;;
12906;SDS011;6521;50.498;8.474;2023-06-14T07:48:52;6.68;;;2.70;;
12906;SDS011;6521;50.498;8.474;2023-06-14T07:51:23;14.55;;;3.08;;
12906;SDS011;6521;50.498;8.474;2023-06-14T07:53:55;5.97;;;2.78;;
12906;SDS011;6521;50.498;8.474;2023-06-14T07:56:26;9.15;;;2.83;;
12906;SDS011;6521;50.498;8.474;2023-06-14T07:58:57;7.47;;;2.22;;
12906;SDS011;6521;50.498;8.474;2023-06-14T08:01:28;12.18;;;2.67;;
12906;SDS011;6521;50.498;8.474;2023-06-14T08:03:59;7.70;;;2.30;;
12906;SDS011;6521;50.498;8.474;2023-06-14T08:06:30;5.40;;;2.67;;
12906;SDS011;6521;50.498;8.474;2023-06-14T08:09:01;17.05;;;2.55;;
12906;SDS011;6521;50.498;8.474;2023-06-14T08:11:32;10.30;;;2.40;;
12906;SDS011;6521;50.498;8.474;2023-06-14T08:14:03;8.57;;;2.95;;
12906;SDS011;6521;50.498;8.474;2023-06-14T08:16:34;9.32;;;2.60;;
12906;SDS011;6521;50.498;8.474;2023-06-14T08:19:05;5.72;;;2.35;;
12906;SDS011;6521;50.498;8.474;2023-06-14T08:21:36;4.03;;;1.80;;
12906;SDS011;6521;50.498;8.474;2023-06-14T08:24:07;9.95;;;2.25;;
12906;SDS011;6521;50.498;8.474;2023-06-14T08:26:38;2.92;;;1.90;;
12906;SDS011;6521;50.498;8.474;2023-06-14T08:29:09;4.07;;;2.30;;
12906;SDS011;6521;50.498;8.474;2023-06-14T08:31:40;3.78;;;1.90;;
12906;SDS011;6521;50.498;8.474;2023-06-14T08:34:11;4.80;;;2.28;;
12906;SDS011;6521;50.498;8.474;2023-06-14T08:36:42;2.78;;;2.50;;
12906;SDS011;6521;50.498;8.474;2023-06-14T08:39:13;7.38;;;2.40;;
12906;SDS011;6521;50.498;8.474;2023-06-14T08:41:45;3.10;;;1.98;;
12906;SDS011;6521;50.498;8.474;2023-06-14T08:44:17;2.20;;;2.00;;
12906;SDS011;6521;50.498;8.474;2023-06-14T08:46:48;3.55;;;2.40;;
12906;SDS011;6521;50.498;8.474;2023-06-14T08:49:19;3.45;;;1.90;;
12906;SDS011;6521;50.498;8.474;2023-06-14T08:51:56;9.07;;;2.42;;
12906;SDS011;6521;50.498;8.474;2023-06-14T08:54:29;9.35;;;2.45;;
12906;SDS011;6521;50.498;8.474;2023-06-14T08:57:06;9.05;;;2.30;;
12906;SDS011;6521;50.498;8.474;2023-06-14T08:59:39;14.65;;;2.28;;
12906;SDS011;6521;50.498;8.474;2023-06-14T09:02:17;5.40;;;2.33;;
12906;SDS011;6521;50.498;8.474;2023-06-14T09:04:50;5.20;;;2.30;;
12906;SDS011;6521;50.498;8.474;2023-06-14T09:07:20;7.18;;;2.70;;
12906;SDS011;6521;50.498;8.474;2023-06-14T09:10:04;4.07;;;1.92;;
12906;SDS011;6521;50.498;8.474;2023-06-14T09:12:40;5.20;;;2.40;;
12906;SDS011;6521;50.498;8.474;2023-06-14T09:15:11;4.70;;;2.35;;
12906;SDS011;6521;50.498;8.474;2023-06-14T09:17:44;4.13;;;2.40;;
12906;SDS011;6521;50.498;8.474;2023-06-14T09:20:15;3.22;;;2.40;;
12906;SDS011;6521;50.498;8.474;2023-06-14T09:22:49;5.03;;;2.47;;
12906;SDS011;6521;50.498;8.474;2023-06-14T09:25:20;11.30;;;2.53;;
12906;SDS011;6521;50.498;8.474;2023-06-14T09:27:51;5.07;;;2.30;;
12906;SDS011;6521;50.498;8.474;2023-06-14T09:30:22;3.88;;;2.28;;
12906;SDS011;6521;50.498;8.474;2023-06-14T09:32:53;8.70;;;2.30;;
12906;SDS011;6521;50.498;8.474;2023-06-14T09:35:24;10.75;;;2.40;;
12906;SDS011;6521;50.498;8.474;2023-06-14T09:37:55;8.88;;;2.35;;
12906;SDS011;6521;50.498;8.474;2023-06-14T09:40:26;7.03;;;2.72;;
12906;SDS011;6521;50.498;8.474;2023-06-14T09:42:57;4.22;;;2.95;;
12906;SDS011;6521;50.498;8.474;2023-06-14T09:45:28;6.78;;;2.55;;
12906;SDS011;6521;50.498;8.474;2023-06-14T09:48:01;9.32;;;2.58;;
12906;SDS011;6521;50.498;8.474;2023-06-14T09:50:33;10.98;;;3.10;;
12906;SDS011;6521;50.498;8.474;2023-06-14T09:53:07;8.90;;;2.83;;
12906;SDS011;6521;50.498;8.474;2023-06-14T09:55:41;7.95;;;2.45;;
12906;SDS011;6521;50.498;8.474;2023-06-14T09:58:12;9.50;;;2.85;;
12906;SDS011;6521;50.498;8.474;2023-06-14T10:00:46;5.95;;;2.67;;
12906;SDS011;6521;50.498;8.474;2023-06-14T10:03:29;4.97;;;2.70;;
12906;SDS011;6521;50.498;8.474;2023-06-14T10:06:02;2.38;;;2.15;;
12906;SDS011;6521;50.498;8.474;2023-06-14T10:08:39;6.90;;;2.40;;
12906;SDS011;6521;50.498;8.474;2023-06-14T10:11:11;19.05;;;3.83;;
12906;SDS011;6521;50.498;8.474;2023-06-14T10:13:43;16.48;;;2.80;;
12906;SDS011;6521;50.498;8.474;2023-06-14T10:16:16;6.45;;;2.22;;
12906;SDS011;6521;50.498;8.474;2023-06-14T10:19:10;11.25;;;2.40;;
12906;SDS011;6521;50.498;8.474;2023-06-14T10:25:01;11.38;;;3.08;;
12906;SDS011;6521;50.498;8.474;2023-06-14T10:27:26;13.88;;;2.63;;
12906;SDS011;6521;50.498;8.474;2023-06-14T10:32:28;6.03;;;2.42;;
12906;SDS011;6521;50.498;8.474;2023-06-14T10:35:00;5.43;;;2.25;;
12906;SDS011;6521;50.498;8.474;2023-06-14T10:37:32;6.15;;;2.67;;
12906;SDS011;6521;50.498;8.474;2023-06-14T10:40:03;4.15;;;2.22;;
12906;SDS011;6521;50.498;8.474;2023-06-14T10:42:39;7.63;;;2.60;;
12906;SDS011;6521;50.498;8.474;2023-06-14T10:45:22;4.38;;;2.40;;
12906;SDS011;6521;50.498;8.474;2023-06-14T10:47:53;5.70;;;2.25;;
12906;SDS011;6521;50.498;8.474;2023-06-14T10:50:27;22.42;;;2.67;;
12906;SDS011;6521;50.498;8.474;2023-06-14T10:53:21;7.75;;;1.98;;
12906;SDS011;6521;50.498;8.474;2023-06-14T10:55:53;9.82;;;2.35;;
12906;SDS011;6521;50.498;8.474;2023-06-14T10:58:26;2.50;;;1.70;;
12906;SDS011;6521;50.498;8.474;2023-06-14T11:00:57;6.97;;;2.22;;
12906;SDS011;6521;50.498;8.474;2023-06-14T11:03:50;5.38;;;2.38;;
12906;SDS011;6521;50.498;8.474;2023-06-14T11:06:25;8.13;;;2.47;;
12906;SDS011;6521;50.498;8.474;2023-06-14T11:11:42;3.05;;;2.45;;
12906;SDS011;6521;50.498;8.474;2023-06-14T11:14:14;6.60;;;2.03;;
12906;SDS011;6521;50.498;8.474;2023-06-14T11:16:49;3.83;;;2.35;;
12906;SDS011;6521;50.498;8.474;2023-06-14T11:19:21;18.40;;;3.33;;
12906;SDS011;6521;50.498;8.474;2023-06-14T11:21:52;8.45;;;2.42;;
12906;SDS011;6521;50.498;8.474;2023-06-14T11:24:23;8.90;;;2.25;;
12906;SDS011;6521;50.498;8.474;2023-06-14T11:26:55;2.53;;;1.90;;
12906;SDS011;6521;50.498;8.474;2023-06-14T11:29:28;5.50;;;2.08;;
12906;SDS011;6521;50.498;8.474;2023-06-14T11:31:59;7.18;;;2.45;;
12906;SDS011;6521;50.498;8.474;2023-06-14T11:34:30;8.55;;;2.35;;
12906;SDS011;6521;50.498;8.474;2023-06-14T11:37:01;9.40;;;2.55;;
12906;SDS011;6521;50.498;8.474;2023-06-14T11:39:32;3.13;;;2.47;;
12906;SDS011;6521;50.498;8.474;2023-06-14T11:42:03;6.30;;;2.60;;
12906;SDS011;6521;50.498;8.474;2023-06-14T11:44:34;2.60;;;2.28;;
12906;SDS011;6521;50.498;8.474;2023-06-14T11:47:05;4.28;;;2.22;;
12906;SDS011;6521;50.498;8.474;2023-06-14T11:49:36;5.57;;;2.10;;
12906;SDS011;6521;50.498;8.474;2023-06-14T11:52:07;2.67;;;2.25;;
12906;SDS011;6521;50.498;8.474;2023-06-14T11:54:38;2.97;;;2.30;;
12906;SDS011;6521;50.498;8.474;2023-06-14T11:57:13;3.80;;;2.40;;
12906;SDS011;6521;50.498;8.474;2023-06-14T11:59:44;9.65;;;2.38;;
12906;SDS011;6521;50.498;8.474;2023-06-14T12:02:16;11.15;;;2.58;;
12906;SDS011;6521;50.498;8.474;2023-06-14T12:04:47;4.65;;;2.47;;
12906;SDS011;6521;50.498;8.474;2023-06-14T12:07:21;4.85;;;2.20;;
12906;SDS011;6521;50.498;8.474;2023-06-14T12:12:29;7.07;;;2.50;;
12906;SDS011;6521;50.498;8.474;2023-06-14T12:15:02;4.15;;;2.40;;
12906;SDS011;6521;50.498;8.474;2023-06-14T12:17:34;6.20;;;2.42;;
12906;SDS011;6521;50.498;8.474;2023-06-14T12:20:09;4.35;;;2.25;;
12906;SDS011;6521;50.498;8.474;2023-06-14T12:22:51;6.50;;;2.10;;
12906;SDS011;6521;50.498;8.474;2023-06-14T12:25:30;3.67;;;2.38;;
12906;SDS011;6521;50.498;8.474;2023-06-14T12:28:06;7.57;;;2.00;;
12906;SDS011;6521;50.498;8.474;2023-06-14T12:30:38;4.53;;;2.10;;
12906;SDS011;6521;50.498;8.474;2023-06-14T12:33:10;8.13;;;2.50;;
12906;SDS011;6521;50.498;8.474;2023-06-14T12:35:41;2.80;;;2.22;;
12906;SDS011;6521;50.498;8.474;2023-06-14T12:38:12;3.80;;;2.60;;
12906;SDS011;6521;50.498;8.474;2023-06-14T12:40:43;3.10;;;2.45;;
12906;SDS011;6521;50.498;8.474;2023-06-14T12:43:14;9.05;;;2.47;;
12906;SDS011;6521;50.498;8.474;2023-06-14T12:45:44;3.38;;;2.33;;
12906;SDS011;6521;50.498;8.474;2023-06-14T12:48:15;3.25;;;2.42;;
12906;SDS011;6521;50.498;8.474;2023-06-14T12:50:47;5.55;;;2.20;;
12906;SDS011;6521;50.498;8.474;2023-06-14T12:53:18;2.85;;;2.40;;
12906;SDS011;6521;50.498;8.474;2023-06-14T12:55:49;2.80;;;2.25;;
12906;SDS011;6521;50.498;8.474;2023-06-14T12:58:20;3.58;;;2.30;;
12906;SDS011;6521;50.498;8.474;2023-06-14T13:00:51;11.30;;;2.85;;
12906;SDS011;6521;50.498;8.474;2023-06-14T13:03:22;7.60;;;2.58;;
12906;SDS011;6521;50.498;8.474;2023-06-14T13:05:52;5.32;;;2.53;;
12906;SDS011;6521;50.498;8.474;2023-06-14T13:08:23;3.55;;;2.50;;
12906;SDS011;6521;50.498;8.474;2023-06-14T13:10:54;11.10;;;2.88;;
12906;SDS011;6521;50.498;8.474;2023-06-14T13:13:25;5.45;;;2.67;;
12906;SDS011;6521;50.498;8.474;2023-06-14T13:15:56;2.75;;;2.42;;
12906;SDS011;6521;50.498;8.474;2023-06-14T13:18:27;7.32;;;2.33;;
12906;SDS011;6521;50.498;8.474;2023-06-14T13:20:58;5.13;;;2.75;;
12906;SDS011;6521;50.498;8.474;2023-06-14T13:23:28;5.78;;;2.60;;
12906;SDS011;6521;50.498;8.474;2023-06-14T13:25:59;3.50;;;2.30;;
12906;SDS011;6521;50.498;8.474;2023-06-14T13:28:30;13.13;;;2.65;;
12906;SDS011;6521;50.498;8.474;2023-06-14T13:31:02;7.28;;;2.20;;
12906;SDS011;6521;50.498;8.474;2023-06-14T13:33:33;7.15;;;2.40;;
12906;SDS011;6521;50.498;8.474;2023-06-14T13:36:03;9.82;;;2.83;;
12906;SDS011;6521;50.498;8.474;2023-06-14T13:38:34;4.75;;;2.60;;
12906;SDS011;6521;50.498;8.474;2023-06-14T13:41:05;5.65;;;2.63;;
12906;SDS011;6521;50.498;8.474;2023-06-14T13:43:36;6.20;;;2.60;;
12906;SDS011;6521;50.498;8.474;2023-06-14T13:46:07;4.63;;;2.42;;
12906;SDS011;6521;50.498;8.474;2023-06-14T13:48:38;4.15;;;2.00;;
12906;SDS011;6521;50.498;8.474;2023-06-14T13:51:09;2.75;;;2.38;;
12906;SDS011;6521;50.498;8.474;2023-06-14T13:53:41;9.02;;;2.67;;
12906;SDS011;6521;50.498;8.474;2023-06-14T13:56:12;7.43;;;2.20;;
12906;SDS011;6521;50.498;8.474;2023-06-14T13:58:43;4.50;;;2.35;;
12906;SDS011;6521;50.498;8.474;2023-06-14T14:01:14;3.78;;;2.50;;
12906;SDS011;6521;50.498;8.474;2023-06-14T14:03:46;23.33;;;3.22;;
12906;SDS011;6521;50.498;8.474;2023-06-14T14:06:19;5.30;;;2.55;;
12906;SDS011;6521;50.498;8.474;2023-06-14T14:08:51;2.58;;;2.38;;
12906;SDS011;6521;50.498;8.474;2023-06-14T14:11:23;13.38;;;2.58;;
12906;SDS011;6521;50.498;8.474;2023-06-14T14:13:54;38.55;;;4.95;;
12906;SDS011;6521;50.498;8.474;2023-06-14T14:16:25;3.60;;;2.50;;
12906;SDS011;6521;50.498;8.474;2023-06-14T14:18:56;26.90;;;4.13;;
12906;SDS011;6521;50.498;8.474;2023-06-14T14:21:27;9.48;;;2.20;;
12906;SDS011;6521;50.498;8.474;2023-06-14T14:23:58;3.28;;;2.38;;
12906;SDS011;6521;50.498;8.474;2023-06-14T14:26:29;3.10;;;2.15;;
12906;SDS011;6521;50.498;8.474;2023-06-14T14:29:00;7.15;;;2.63;;
12906;SDS011;6521;50.498;8.474;2023-06-14T14:31:31;7.18;;;2.30;;
12906;SDS011;6521;50.498;8.474;2023-06-14T14:34:02;5.72;;;2.58;;
12906;SDS011;6521;50.498;8.474;2023-06-14T14:36:32;5.25;;;2.70;;
12906;SDS011;6521;50.498;8.474;2023-06-14T14:39:06;2.53;;;2.20;;
12906;SDS011;6521;50.498;8.474;2023-06-14T14:41:37;22.55;;;3.08;;
12906;SDS011;6521;50.498;8.474;2023-06-14T14:44:08;10.27;;;2.80;;
12906;SDS011;6521;50.498;8.474;2023-06-14T14:46:39;6.15;;;2.38;;
12906;SDS011;6521;50.498;8.474;2023-06-14T14:49:10;4.10;;;2.40;;
12906;SDS011;6521;50.498;8.474;2023-06-14T14:51:41;4.68;;;2.30;;
12906;SDS011;6521;50.498;8.474;2023-06-14T14:54:12;3.58;;;3.00;;
12906;SDS011;6521;50.498;8.474;2023-06-14T14:56:43;2.88;;;2.53;;
12906;SDS011;6521;50.498;8.474;2023-06-14T14:59:14;3.83;;;2.35;;
12906;SDS011;6521;50.498;8.474;2023-06-14T15:01:45;6.28;;;2.53;;
12906;SDS011;6521;50.498;8.474;2023-06-14T15:04:16;4.70;;;2.75;;
12906;SDS011;6521;50.498;8.474;2023-06-14T15:06:47;2.80;;;2.40;;
12906;SDS011;6521;50.498;8.474;2023-06-14T15:09:17;2.67;;;2.30;;
12906;SDS011;6521;50.498;8.474;2023-06-14T15:11:48;6.30;;;2.58;;
12906;SDS011;6521;50.498;8.474;2023-06-14T15:14:19;6.38;;;2.78;;
12906;SDS011;6521;50.498;8.474;2023-06-14T15:16:50;3.63;;;2.28;;
12906;SDS011;6521;50.498;8.474;2023-06-14T15:19:21;10.85;;;2.58;;
12906;SDS011;6521;50.498;8.474;2023-06-14T15:21:51;4.38;;;2.38;;
12906;SDS011;6521;50.498;8.474;2023-06-14T15:24:22;8.88;;;2.58;;
12906;SDS011;6521;50.498;8.474;2023-06-14T15:26:53;2.35;;;2.15;;
12906;SDS011;6521;50.498;8.474;2023-06-14T15:29:24;8.93;;;2.58;;
12906;SDS011;6521;50.498;8.474;2023-06-14T15:31:55;5.90;;;2.60;;
12906;SDS011;6521;50.498;8.474;2023-06-14T15:34:28;3.35;;;2.40;;
12906;SDS011;6521;50.498;8.474;2023-06-14T15:36:59;6.70;;;2.70;;